Portada
METAR-TAF:

METAR-TAF

Aeroports :

Mahajanga, Madagascar

latitud: 15-40S, longitud: 046-21E, altitud: 26 m

Observació

L'informe es va fer fa 20 minuts, a les 01:00 UTC
Vent calma
Temperatura 24°C
Humitat 89%
Pressió 1013 hPa
Visibilitat 10 km o més
Escasses núvols a una alçada de 4000 ft

METAR: FMNM 240100Z 00000KT 9999 FEW040 24/22 Q1013

Hora: 04:20 (01:20 UTC)

Pronòstic

L'informe es va fer fa 2 hores i 20 minuts, a les 23:00 UTC
Pronòstic vàlid del 24 a les 00 UTC al 24 a les 24 UTC
Vent kt del Nord
Visibilitat 10 km o més
Escasses núvols a una alçada de 4000 ft
Evolucionant progressivament
l' 24 a les 04 UTC al 24 a les 06 UTC
Vent 10 kt del Est/Sud-Est
Evolucionant progressivament
l' 24 a les 10 UTC al 24 a les 12 UTC
Vent 10 kt del Nord-Oest
Evolucionant progressivament
l' 24 a les 18 UTC al 24 a les 20 UTC
Vent 4 kt del Oest

TAF: FMNM 232300Z 2400/2424 00000KT 9999 FEW040 BECMG 2404/2406 12010KT BECMG 2410/2412 32010KT BECMG 2418/2420 28004KT

Observacions i pronòstics meteorològics de més de 4000 aeroports (METAR i TAF).

Les estacions disponibles són els punts grocs i vermells al mapa.

Posi el ratolí al punt desitjat per veure el nom de l'estació.

Feu clic per veure les observacions i els pronòstics meteorològics.

Per canviar el mapa: feu clic els botons verds amb una creu de color negre per apropar; al botó verd amb un guió per allunyar la imatge; o en les fletxes verdes per a mapes adjacents.


METAR-TAF: